createdAt,value
2022-09-20T00:02:12.946Z,5.40
2022-09-20T00:06:14.681Z,5.10
2022-09-20T00:10:12.016Z,5.53
2022-09-20T00:14:09.103Z,5.53
2022-09-20T00:18:06.127Z,5.03
2022-09-20T00:22:03.096Z,5.50
2022-09-20T00:26:05.040Z,5.20
2022-09-20T00:30:02.111Z,5.47
2022-09-20T00:34:17.893Z,5.30
2022-09-20T00:38:16.209Z,4.90
2022-09-20T00:42:15.263Z,5.87
2022-09-20T00:46:45.672Z,5.30
2022-09-20T00:51:14.877Z,5.30
2022-09-20T00:55:14.082Z,5.23
2022-09-20T00:59:35.028Z,5.87
2022-09-20T01:03:35.633Z,5.20
2022-09-20T01:07:34.395Z,5.20
2022-09-20T01:11:32.077Z,5.13
2022-09-20T01:15:33.222Z,5.20
2022-09-20T01:19:50.123Z,5.40
2022-09-20T01:24:03.910Z,4.53
2022-09-20T01:28:00.982Z,4.80
2022-09-20T01:32:04.221Z,4.50
2022-09-20T01:36:06.181Z,4.47
2022-09-20T01:40:31.871Z,4.70
2022-09-20T01:45:04.480Z,4.90
2022-09-20T01:49:10.721Z,4.60
2022-09-20T01:53:44.419Z,5.47
2022-09-20T01:58:09.053Z,5.27
2022-09-20T02:02:09.115Z,5.47
2022-09-20T02:06:39.416Z,5.83
2022-09-20T02:11:07.067Z,6.20
2022-09-20T02:15:42.490Z,5.83
2022-09-20T02:20:15.738Z,6.00
2022-09-20T02:24:53.479Z,6.03
2022-09-20T02:29:10.492Z,5.87
2022-09-20T02:33:28.520Z,5.60
2022-09-20T02:38:00.277Z,5.60
2022-09-20T02:42:06.116Z,5.57
2022-09-20T02:46:12.347Z,5.40
2022-09-20T02:50:45.727Z,5.80
2022-09-20T02:55:10.766Z,5.37
2022-09-20T02:59:38.896Z,5.17
2022-09-20T03:03:57.523Z,5.30
2022-09-20T03:08:32.141Z,5.40
2022-09-20T03:13:09.778Z,5.07
2022-09-20T03:17:47.478Z,4.67
2022-09-20T03:22:31.416Z,4.77
2022-09-20T03:27:05.752Z,4.67
2022-09-20T03:31:32.992Z,4.70
2022-09-20T03:35:41.327Z,4.90
2022-09-20T03:39:59.895Z,4.67
2022-09-20T03:43:56.800Z,4.83
2022-09-20T03:48:39.349Z,4.73
2022-09-20T03:52:57.909Z,4.60
2022-09-20T03:57:28.814Z,4.50
2022-09-20T04:02:03.821Z,4.23
2022-09-20T04:06:50.672Z,4.23
2022-09-20T04:11:06.160Z,4.60
2022-09-20T04:15:35.647Z,4.73
2022-09-20T04:19:52.188Z,4.53
2022-09-20T04:24:30.133Z,4.50
2022-09-20T04:28:59.352Z,4.40
2022-09-20T04:33:25.270Z,4.50
2022-09-20T04:37:33.892Z,4.60
2022-09-20T04:42:08.155Z,4.43
2022-09-20T04:46:44.150Z,4.70
2022-09-20T04:50:46.783Z,4.50
2022-09-20T04:55:57.085Z,4.80
2022-09-20T05:00:22.650Z,4.30
2022-09-20T05:05:09.986Z,4.43
2022-09-20T05:09:31.110Z,5.10
2022-09-20T05:14:03.344Z,4.13
2022-09-20T05:18:18.477Z,3.80
2022-09-20T05:22:54.357Z,3.50
2022-09-20T05:27:53.070Z,3.07
2022-09-20T05:32:03.268Z,2.83
2022-09-20T05:36:56.564Z,3.10
2022-09-20T05:41:39.233Z,3.13
2022-09-20T05:46:12.305Z,2.70
2022-09-20T05:50:55.380Z,2.80
2022-09-20T05:55:27.192Z,2.83
2022-09-20T05:59:40.293Z,3.00
2022-09-20T06:03:55.857Z,2.57
2022-09-20T06:08:20.697Z,2.47
2022-09-20T06:12:43.812Z,2.80
2022-09-20T06:16:47.021Z,3.10
2022-09-20T06:21:31.336Z,2.77
2022-09-20T06:25:48.539Z,2.80
2022-09-20T06:29:53.226Z,3.40
2022-09-20T06:34:10.029Z,3.70
2022-09-20T06:38:46.720Z,3.47
2022-09-20T06:42:44.718Z,3.50
2022-09-20T06:46:41.910Z,3.07
2022-09-20T06:50:39.962Z,3.17
2022-09-20T06:54:38.029Z,4.40
2022-09-20T06:58:35.042Z,2.63
2022-09-20T07:02:32.073Z,2.50
2022-09-20T07:06:29.332Z,2.83
2022-09-20T07:10:28.271Z,3.13
2022-09-20T07:14:26.482Z,2.37
2022-09-20T07:18:23.435Z,2.17
2022-09-20T07:22:21.576Z,2.27
2022-09-20T07:26:28.691Z,2.20
2022-09-20T07:30:26.070Z,1.97
2022-09-20T07:34:23.208Z,2.03
2022-09-20T07:38:21.951Z,1.63
2022-09-20T07:42:18.939Z,2.10
2022-09-20T07:46:15.920Z,1.67
2022-09-20T07:50:13.076Z,1.80
2022-09-20T07:54:10.144Z,1.70
2022-09-20T07:58:07.090Z,1.63
2022-09-20T08:02:07.097Z,1.80
2022-09-20T08:06:16.157Z,1.70
2022-09-20T08:10:13.094Z,1.90
2022-09-20T08:14:15.727Z,1.80
2022-09-20T08:18:13.475Z,2.10
2022-09-20T08:22:12.642Z,2.27
2022-09-20T08:26:13.367Z,2.30
2022-09-20T08:30:11.675Z,2.20
2022-09-20T08:34:11.654Z,2.00
2022-09-20T08:42:35.761Z,1.80
2022-09-20T08:46:43.665Z,1.47
2022-09-20T08:50:40.589Z,1.80
2022-09-20T08:54:37.749Z,1.33
2022-09-20T08:58:34.748Z,1.60
2022-09-20T09:02:34.501Z,2.00
2022-09-20T09:06:32.012Z,1.90
2022-09-20T09:10:42.596Z,1.90
2022-09-20T09:14:48.988Z,1.63
2022-09-20T09:18:49.487Z,1.43
2022-09-20T09:22:47.821Z,1.60
2022-09-20T09:26:45.074Z,1.60
2022-09-20T09:30:50.722Z,1.38
2022-09-20T09:34:48.083Z,1.27
2022-09-20T09:38:47.200Z,1.50
2022-09-20T09:43:00.306Z,1.50
2022-09-20T09:46:58.328Z,1.50
2022-09-20T09:51:17.900Z,1.45
2022-09-20T09:55:14.906Z,1.63
2022-09-20T09:59:46.937Z,1.75
2022-09-20T10:04:11.145Z,1.20
2022-09-20T10:08:26.202Z,1.90
2022-09-20T10:13:01.846Z,1.33
2022-09-20T10:17:06.281Z,1.30
2022-09-20T10:21:44.216Z,1.40
2022-09-20T10:26:25.633Z,1.50
2022-09-20T10:30:35.777Z,1.35
2022-09-20T10:35:11.685Z,1.30
2022-09-20T10:39:35.073Z,1.30
2022-09-20T10:44:10.474Z,1.27
2022-09-20T10:48:41.056Z,1.20
2022-09-20T10:52:56.200Z,1.50
2022-09-20T10:57:24.100Z,1.80
2022-09-20T11:01:55.048Z,1.60
2022-09-20T11:06:14.275Z,1.60
2022-09-20T11:10:25.977Z,1.57
2022-09-20T11:14:35.258Z,1.70
2022-09-20T11:19:03.126Z,1.37
2022-09-20T11:23:40.884Z,1.20
2022-09-20T11:27:49.254Z,1.00
2022-09-20T11:31:53.260Z,0.90
2022-09-20T11:35:56.062Z,0.98
2022-09-20T11:39:55.746Z,1.30
2022-09-20T11:43:57.438Z,1.58
2022-09-20T11:48:03.372Z,1.38
2022-09-20T11:52:33.659Z,1.45
2022-09-20T11:56:34.595Z,1.15
2022-09-20T12:00:38.078Z,1.65
2022-09-20T12:04:36.917Z,1.17
2022-09-20T12:08:41.788Z,0.95
2022-09-20T12:12:47.917Z,0.90
2022-09-20T12:16:48.722Z,0.73
2022-09-20T12:21:06.517Z,1.10
2022-09-20T12:25:38.611Z,1.00
2022-09-20T12:29:35.981Z,0.93
2022-09-20T12:34:16.009Z,0.90
2022-09-20T12:38:22.161Z,0.90
2022-09-20T12:42:19.028Z,1.02
2022-09-20T12:46:30.113Z,1.30
2022-09-20T12:50:46.832Z,0.90
2022-09-20T12:54:53.572Z,1.00
2022-09-20T12:58:56.530Z,0.95
2022-09-20T13:02:54.082Z,0.95
2022-09-20T13:07:33.395Z,1.20
2022-09-20T13:11:44.596Z,0.90
2022-09-20T13:15:51.774Z,1.02
2022-09-20T13:19:50.788Z,1.25
2022-09-20T13:23:54.304Z,1.40
2022-09-20T13:28:27.512Z,1.00
2022-09-20T13:32:26.560Z,1.00
2022-09-20T13:36:30.313Z,0.98
2022-09-20T13:40:39.319Z,0.90
2022-09-20T13:44:37.260Z,0.77
2022-09-20T13:48:34.825Z,0.90
2022-09-20T13:52:32.615Z,1.60
2022-09-20T13:56:31.677Z,0.60
2022-09-20T14:00:31.638Z,0.70
2022-09-20T14:04:31.448Z,0.85
2022-09-20T14:08:46.969Z,0.90
2022-09-20T14:12:46.669Z,0.73
2022-09-20T14:16:46.921Z,0.60
2022-09-20T14:20:45.929Z,0.70
2022-09-20T14:24:59.761Z,0.70
2022-09-20T14:28:56.843Z,0.70
2022-09-20T14:32:59.756Z,1.10
2022-09-20T14:37:20.762Z,0.80
2022-09-20T14:41:38.803Z,0.80
2022-09-20T14:45:39.911Z,0.80
2022-09-20T14:49:44.254Z,1.20
2022-09-20T14:53:41.273Z,0.90
2022-09-20T14:57:38.329Z,3.70
2022-09-20T15:01:41.182Z,0.80
2022-09-20T15:05:38.140Z,0.83
2022-09-20T15:09:35.412Z,1.40
2022-09-20T15:13:32.583Z,0.80
2022-09-20T15:17:29.593Z,1.50
2022-09-20T15:21:27.022Z,1.60
2022-09-20T15:25:24.654Z,1.97
2022-09-20T15:29:22.108Z,3.43
2022-09-20T15:33:21.545Z,2.00
2022-09-20T15:37:18.512Z,1.47
2022-09-20T15:41:15.472Z,1.00
2022-09-20T15:45:12.630Z,1.10
2022-09-20T15:49:12.380Z,1.67
2022-09-20T15:53:09.608Z,1.30
2022-09-20T15:57:06.583Z,1.10
2022-09-20T16:01:08.688Z,1.20
2022-09-20T16:05:06.701Z,1.13
2022-09-20T16:09:04.640Z,1.30
2022-09-20T16:13:01.615Z,1.30
2022-09-20T16:16:58.598Z,1.67
2022-09-20T16:20:55.563Z,1.20
2022-09-20T16:24:52.522Z,2.70
2022-09-20T16:28:49.645Z,1.00
2022-09-20T16:32:47.276Z,1.20
2022-09-20T16:36:45.522Z,1.00
2022-09-20T16:40:42.835Z,1.47
2022-09-20T16:44:42.925Z,2.13
2022-09-20T16:48:39.937Z,1.90
2022-09-20T16:52:37.851Z,2.23
2022-09-20T16:56:35.682Z,3.00
2022-09-20T17:00:33.863Z,2.93
2022-09-20T17:04:30.846Z,2.47
2022-09-20T17:08:28.210Z,2.43
2022-09-20T17:12:29.034Z,13.17
2022-09-20T17:16:35.280Z,3.40
2022-09-20T17:20:34.095Z,4.27
2022-09-20T17:24:31.037Z,6.20
2022-09-20T17:28:28.006Z,7.07
2022-09-20T17:32:24.972Z,8.07
2022-09-20T17:36:22.096Z,6.97
2022-09-20T17:40:19.201Z,6.03
2022-09-20T17:44:17.012Z,4.40
2022-09-20T17:48:15.037Z,4.60
2022-09-20T17:52:12.018Z,3.77
2022-09-20T17:56:13.379Z,3.87
2022-09-20T18:00:11.311Z,4.10
2022-09-20T18:04:10.882Z,3.70
2022-09-20T18:08:07.827Z,3.27
2022-09-20T18:12:05.372Z,3.80
2022-09-20T18:16:04.342Z,2.87
2022-09-20T18:20:01.978Z,2.70
2022-09-20T18:23:59.188Z,3.97
2022-09-20T18:27:56.602Z,3.83
2022-09-20T18:31:54.611Z,4.30
2022-09-20T18:35:51.585Z,3.50
2022-09-20T18:39:49.665Z,3.30
2022-09-20T18:43:47.167Z,4.00
2022-09-20T18:47:44.810Z,4.27
2022-09-20T18:51:43.758Z,2.97
2022-09-20T18:55:41.624Z,2.40
2022-09-20T18:59:40.249Z,3.57
2022-09-20T19:04:07.896Z,3.03
2022-09-20T19:08:40.834Z,2.40
2022-09-20T19:13:05.226Z,2.93
2022-09-20T19:17:02.640Z,1.60
2022-09-20T19:21:29.497Z,1.80
2022-09-20T19:25:45.398Z,2.63
2022-09-20T19:29:42.936Z,1.67
2022-09-20T19:33:40.274Z,1.30
2022-09-20T19:38:15.623Z,7.00
2022-09-20T19:42:36.172Z,4.30
2022-09-20T19:46:47.590Z,5.33
2022-09-20T19:50:50.124Z,7.30
2022-09-20T19:54:47.961Z,5.60
2022-09-20T19:58:45.474Z,3.67
2022-09-20T20:02:44.781Z,3.20
2022-09-20T20:06:50.171Z,4.37
2022-09-20T20:11:34.460Z,6.47
2022-09-20T20:16:01.003Z,4.30
2022-09-20T20:20:44.324Z,5.43
2022-09-20T20:24:52.512Z,4.33
2022-09-20T20:28:51.807Z,4.57
2022-09-20T20:32:48.740Z,6.47
2022-09-20T20:36:45.708Z,6.70
2022-09-20T20:40:42.660Z,6.73
2022-09-20T20:44:40.153Z,7.87
2022-09-20T20:48:39.291Z,9.13
2022-09-20T20:52:36.250Z,8.10
2022-09-20T20:56:33.205Z,8.47
2022-09-20T21:00:30.975Z,12.20
2022-09-20T21:04:28.621Z,7.87
2022-09-20T21:08:35.449Z,8.17
2022-09-20T21:12:32.374Z,7.03
2022-09-20T21:16:39.639Z,11.03
2022-09-20T21:20:38.634Z,10.20
2022-09-20T21:24:35.637Z,6.27
2022-09-20T21:28:33.052Z,4.40
2022-09-20T21:32:30.388Z,4.43
2022-09-20T21:36:30.928Z,4.27
2022-09-20T21:40:27.904Z,4.20
2022-09-20T21:44:25.158Z,3.50
2022-09-20T21:48:22.119Z,3.90
2022-09-20T21:52:19.091Z,3.60
2022-09-20T21:56:17.678Z,3.47
2022-09-20T22:00:15.750Z,3.30
2022-09-20T22:04:12.962Z,5.60
2022-09-20T22:08:09.871Z,3.10
2022-09-20T22:12:06.930Z,5.93
2022-09-20T22:16:14.747Z,5.77
2022-09-20T22:20:11.711Z,5.00
2022-09-20T22:24:11.176Z,5.90
2022-09-20T22:28:08.147Z,3.80
2022-09-20T22:32:05.352Z,3.20
2022-09-20T22:36:02.680Z,2.30
2022-09-20T22:39:59.898Z,2.80
2022-09-20T22:43:56.994Z,4.40
2022-09-20T22:47:53.952Z,3.20
2022-09-20T22:51:50.909Z,3.00
2022-09-20T22:55:47.828Z,2.60
2022-09-20T22:59:44.821Z,2.53
2022-09-20T23:03:45.437Z,2.50
2022-09-20T23:07:42.417Z,2.30
2022-09-20T23:11:42.860Z,2.33
2022-09-20T23:15:39.792Z,2.30
2022-09-20T23:19:36.760Z,2.70
2022-09-20T23:23:36.711Z,2.20
2022-09-20T23:27:33.776Z,2.27
2022-09-20T23:31:34.695Z,1.90
2022-09-20T23:35:31.643Z,1.80
2022-09-20T23:39:28.614Z,1.50
2022-09-20T23:43:25.578Z,1.60
2022-09-20T23:47:22.704Z,1.40
2022-09-20T23:51:23.843Z,1.50
2022-09-20T23:55:20.853Z,1.40
2022-09-20T23:59:17.867Z,1.73
